sensor_id;sensor_type;location;lat;lon;timestamp;temperature;humidity
5675;DHT22;2860;54.284;10.158;2024-01-30T00:00:42;5.60;99.90
5675;DHT22;2860;54.284;10.158;2024-01-30T00:03:08;5.60;99.90
5675;DHT22;2860;54.284;10.158;2024-01-30T00:05:33;5.60;99.90
5675;DHT22;2860;54.284;10.158;2024-01-30T00:07:59;5.70;99.90
5675;DHT22;2860;54.284;10.158;2024-01-30T00:10:24;5.70;99.90
5675;DHT22;2860;54.284;10.158;2024-01-30T00:12:50;5.70;99.90
5675;DHT22;2860;54.284;10.158;2024-01-30T00:15:15;5.70;99.90
5675;DHT22;2860;54.284;10.158;2024-01-30T00:17:41;5.70;99.90
5675;DHT22;2860;54.284;10.158;2024-01-30T00:20:07;5.70;99.90
5675;DHT22;2860;54.284;10.158;2024-01-30T00:22:34;5.80;99.90
5675;DHT22;2860;54.284;10.158;2024-01-30T00:25:00;5.80;99.90
5675;DHT22;2860;54.284;10.158;2024-01-30T00:27:26;5.80;99.90
5675;DHT22;2860;54.284;10.158;2024-01-30T00:29:51;5.80;99.90
5675;DHT22;2860;54.284;10.158;2024-01-30T00:32:17;5.80;99.90
5675;DHT22;2860;54.284;10.158;2024-01-30T00:34:44;5.80;99.90
5675;DHT22;2860;54.284;10.158;2024-01-30T00:37:10;5.70;99.90
5675;DHT22;2860;54.284;10.158;2024-01-30T00:39:35;5.80;99.90
5675;DHT22;2860;54.284;10.158;2024-01-30T00:42:01;5.70;99.90
5675;DHT22;2860;54.284;10.158;2024-01-30T00:44:26;5.80;99.90
5675;DHT22;2860;54.284;10.158;2024-01-30T00:46:52;5.80;99.90
5675;DHT22;2860;54.284;10.158;2024-01-30T00:49:18;5.80;99.90
5675;DHT22;2860;54.284;10.158;2024-01-30T00:51:43;5.80;99.90
5675;DHT22;2860;54.284;10.158;2024-01-30T00:54:09;5.80;99.90
5675;DHT22;2860;54.284;10.158;2024-01-30T00:56:34;5.80;99.90
5675;DHT22;2860;54.284;10.158;2024-01-30T00:59:00;5.80;99.90
5675;DHT22;2860;54.284;10.158;2024-01-30T01:01:25;5.80;99.90
5675;DHT22;2860;54.284;10.158;2024-01-30T01:03:51;5.80;99.90
5675;DHT22;2860;54.284;10.158;2024-01-30T01:06:16;5.80;99.90
5675;DHT22;2860;54.284;10.158;2024-01-30T01:08:42;5.80;99.90
5675;DHT22;2860;54.284;10.158;2024-01-30T01:11:07;5.80;99.90
5675;DHT22;2860;54.284;10.158;2024-01-30T01:13:33;5.80;99.90
5675;DHT22;2860;54.284;10.158;2024-01-30T01:15:58;5.80;99.90
5675;DHT22;2860;54.284;10.158;2024-01-30T01:18:24;5.80;99.90
5675;DHT22;2860;54.284;10.158;2024-01-30T01:20:49;5.90;99.90
5675;DHT22;2860;54.284;10.158;2024-01-30T01:23:15;5.90;99.90
5675;DHT22;2860;54.284;10.158;2024-01-30T01:25:40;5.90;99.90
5675;DHT22;2860;54.284;10.158;2024-01-30T01:28:06;5.90;99.90
5675;DHT22;2860;54.284;10.158;2024-01-30T01:30:31;5.90;99.90
5675;DHT22;2860;54.284;10.158;2024-01-30T01:32:57;5.90;99.90
5675;DHT22;2860;54.284;10.158;2024-01-30T01:35:26;5.90;99.90
5675;DHT22;2860;54.284;10.158;2024-01-30T01:37:53;5.90;99.90
5675;DHT22;2860;54.284;10.158;2024-01-30T01:40:26;5.90;99.90
5675;DHT22;2860;54.284;10.158;2024-01-30T01:42:53;5.90;99.90
5675;DHT22;2860;54.284;10.158;2024-01-30T01:45:20;5.90;99.90
5675;DHT22;2860;54.284;10.158;2024-01-30T01:47:49;5.90;99.90
5675;DHT22;2860;54.284;10.158;2024-01-30T01:50:16;5.90;99.90
5675;DHT22;2860;54.284;10.158;2024-01-30T01:52:47;5.90;99.90
5675;DHT22;2860;54.284;10.158;2024-01-30T01:55:13;5.90;99.90
5675;DHT22;2860;54.284;10.158;2024-01-30T01:57:40;5.90;99.90
5675;DHT22;2860;54.284;10.158;2024-01-30T02:00:06;5.90;99.90
5675;DHT22;2860;54.284;10.158;2024-01-30T02:02:35;5.90;99.90
5675;DHT22;2860;54.284;10.158;2024-01-30T02:05:01;5.90;99.90
5675;DHT22;2860;54.284;10.158;2024-01-30T02:07:28;5.90;99.90
5675;DHT22;2860;54.284;10.158;2024-01-30T02:09:53;5.90;99.90
5675;DHT22;2860;54.284;10.158;2024-01-30T02:12:19;5.90;99.90
5675;DHT22;2860;54.284;10.158;2024-01-30T02:14:48;5.90;99.90
5675;DHT22;2860;54.284;10.158;2024-01-30T02:17:15;5.90;99.90
5675;DHT22;2860;54.284;10.158;2024-01-30T02:19:41;5.90;99.90
5675;DHT22;2860;54.284;10.158;2024-01-30T02:22:07;5.80;99.90
5675;DHT22;2860;54.284;10.158;2024-01-30T02:24:33;5.80;99.90
5675;DHT22;2860;54.284;10.158;2024-01-30T02:26:59;5.70;99.90
5675;DHT22;2860;54.284;10.158;2024-01-30T02:29:24;5.60;99.90
5675;DHT22;2860;54.284;10.158;2024-01-30T02:31:50;5.60;99.90
5675;DHT22;2860;54.284;10.158;2024-01-30T02:34:15;5.50;99.90
5675;DHT22;2860;54.284;10.158;2024-01-30T02:36:44;5.40;99.90
5675;DHT22;2860;54.284;10.158;2024-01-30T02:39:10;5.30;99.90
5675;DHT22;2860;54.284;10.158;2024-01-30T02:41:35;5.20;99.90
5675;DHT22;2860;54.284;10.158;2024-01-30T02:44:02;5.10;99.90
5675;DHT22;2860;54.284;10.158;2024-01-30T02:46:31;5.00;99.90
5675;DHT22;2860;54.284;10.158;2024-01-30T02:48:56;4.90;99.90
5675;DHT22;2860;54.284;10.158;2024-01-30T02:51:22;4.90;99.90
5675;DHT22;2860;54.284;10.158;2024-01-30T02:53:48;4.80;99.90
5675;DHT22;2860;54.284;10.158;2024-01-30T02:56:13;4.80;99.90
5675;DHT22;2860;54.284;10.158;2024-01-30T02:58:40;4.70;99.90
5675;DHT22;2860;54.284;10.158;2024-01-30T03:01:06;4.70;99.90
5675;DHT22;2860;54.284;10.158;2024-01-30T03:03:31;4.70;99.90
5675;DHT22;2860;54.284;10.158;2024-01-30T03:05:57;4.60;99.90
5675;DHT22;2860;54.284;10.158;2024-01-30T03:08:22;4.50;99.90
5675;DHT22;2860;54.284;10.158;2024-01-30T03:10:48;4.50;99.90
5675;DHT22;2860;54.284;10.158;2024-01-30T03:13:14;4.40;99.90
5675;DHT22;2860;54.284;10.158;2024-01-30T03:15:39;4.40;99.90
5675;DHT22;2860;54.284;10.158;2024-01-30T03:18:05;4.30;99.90
5675;DHT22;2860;54.284;10.158;2024-01-30T03:20:31;4.30;99.90
5675;DHT22;2860;54.284;10.158;2024-01-30T03:22:57;4.30;99.90
5675;DHT22;2860;54.284;10.158;2024-01-30T03:25:22;4.30;99.90
5675;DHT22;2860;54.284;10.158;2024-01-30T03:27:48;4.30;99.90
5675;DHT22;2860;54.284;10.158;2024-01-30T03:30:14;4.30;99.90
5675;DHT22;2860;54.284;10.158;2024-01-30T03:32:39;4.30;99.90
5675;DHT22;2860;54.284;10.158;2024-01-30T03:35:05;4.20;99.90
5675;DHT22;2860;54.284;10.158;2024-01-30T03:37:31;4.20;99.90
5675;DHT22;2860;54.284;10.158;2024-01-30T03:39:56;4.10;99.90
5675;DHT22;2860;54.284;10.158;2024-01-30T03:42:22;4.10;99.90
5675;DHT22;2860;54.284;10.158;2024-01-30T03:44:48;4.00;99.90
5675;DHT22;2860;54.284;10.158;2024-01-30T03:47:13;4.00;99.90
5675;DHT22;2860;54.284;10.158;2024-01-30T03:49:39;3.90;99.90
5675;DHT22;2860;54.284;10.158;2024-01-30T03:52:05;3.90;99.90
5675;DHT22;2860;54.284;10.158;2024-01-30T03:54:31;3.80;99.90
5675;DHT22;2860;54.284;10.158;2024-01-30T03:56:56;3.80;99.90
5675;DHT22;2860;54.284;10.158;2024-01-30T03:59:22;3.70;99.90
5675;DHT22;2860;54.284;10.158;2024-01-30T04:01:50;3.70;99.90
5675;DHT22;2860;54.284;10.158;2024-01-30T04:04:19;3.60;99.90
5675;DHT22;2860;54.284;10.158;2024-01-30T04:06:45;3.60;99.90
5675;DHT22;2860;54.284;10.158;2024-01-30T04:09:11;3.60;99.90
5675;DHT22;2860;54.284;10.158;2024-01-30T04:11:38;3.50;99.90
5675;DHT22;2860;54.284;10.158;2024-01-30T04:14:04;3.50;99.90
5675;DHT22;2860;54.284;10.158;2024-01-30T04:16:29;3.50;99.90
5675;DHT22;2860;54.284;10.158;2024-01-30T04:18:56;3.50;99.90
5675;DHT22;2860;54.284;10.158;2024-01-30T04:21:21;3.50;99.90
5675;DHT22;2860;54.284;10.158;2024-01-30T04:23:48;3.40;99.90
5675;DHT22;2860;54.284;10.158;2024-01-30T04:26:14;3.40;99.90
5675;DHT22;2860;54.284;10.158;2024-01-30T04:28:42;3.40;99.90
5675;DHT22;2860;54.284;10.158;2024-01-30T04:31:08;3.30;99.90
5675;DHT22;2860;54.284;10.158;2024-01-30T04:33:33;3.30;99.90
5675;DHT22;2860;54.284;10.158;2024-01-30T04:35:59;3.20;99.90
5675;DHT22;2860;54.284;10.158;2024-01-30T04:38:24;3.20;99.90
5675;DHT22;2860;54.284;10.158;2024-01-30T04:40:50;3.20;99.90
5675;DHT22;2860;54.284;10.158;2024-01-30T04:43:15;3.10;99.90
5675;DHT22;2860;54.284;10.158;2024-01-30T04:45:41;3.10;99.90
5675;DHT22;2860;54.284;10.158;2024-01-30T04:48:07;3.00;99.90
5675;DHT22;2860;54.284;10.158;2024-01-30T04:50:33;3.10;99.90
5675;DHT22;2860;54.284;10.158;2024-01-30T04:52:58;3.00;99.90
5675;DHT22;2860;54.284;10.158;2024-01-30T04:55:24;3.00;99.90
5675;DHT22;2860;54.284;10.158;2024-01-30T04:57:49;3.00;99.90
5675;DHT22;2860;54.284;10.158;2024-01-30T05:00:15;3.00;99.90
5675;DHT22;2860;54.284;10.158;2024-01-30T05:02:41;3.00;99.90
5675;DHT22;2860;54.284;10.158;2024-01-30T05:05:06;2.90;99.90
5675;DHT22;2860;54.284;10.158;2024-01-30T05:07:33;2.90;99.90
5675;DHT22;2860;54.284;10.158;2024-01-30T05:09:58;2.80;99.90
5675;DHT22;2860;54.284;10.158;2024-01-30T05:12:24;2.80;99.90
5675;DHT22;2860;54.284;10.158;2024-01-30T05:14:49;2.70;99.90
5675;DHT22;2860;54.284;10.158;2024-01-30T05:17:15;2.70;99.90
5675;DHT22;2860;54.284;10.158;2024-01-30T05:19:40;2.70;99.90
5675;DHT22;2860;54.284;10.158;2024-01-30T05:22:06;2.70;99.90
5675;DHT22;2860;54.284;10.158;2024-01-30T05:24:31;2.70;99.90
5675;DHT22;2860;54.284;10.158;2024-01-30T05:26:57;2.60;99.90
5675;DHT22;2860;54.284;10.158;2024-01-30T05:29:24;2.60;99.90
5675;DHT22;2860;54.284;10.158;2024-01-30T05:31:49;2.60;99.90
5675;DHT22;2860;54.284;10.158;2024-01-30T05:34:15;2.60;99.90
5675;DHT22;2860;54.284;10.158;2024-01-30T05:36:41;2.60;99.90
5675;DHT22;2860;54.284;10.158;2024-01-30T05:39:07;2.60;99.90
5675;DHT22;2860;54.284;10.158;2024-01-30T05:41:32;2.60;99.90
5675;DHT22;2860;54.284;10.158;2024-01-30T05:43:58;2.50;99.90
5675;DHT22;2860;54.284;10.158;2024-01-30T05:46:23;2.50;99.90
5675;DHT22;2860;54.284;10.158;2024-01-30T05:48:49;2.50;99.90
5675;DHT22;2860;54.284;10.158;2024-01-30T05:51:14;2.50;99.90
5675;DHT22;2860;54.284;10.158;2024-01-30T05:53:40;2.50;99.90
5675;DHT22;2860;54.284;10.158;2024-01-30T05:56:06;2.50;99.90
5675;DHT22;2860;54.284;10.158;2024-01-30T05:58:31;2.50;99.90
5675;DHT22;2860;54.284;10.158;2024-01-30T06:00:57;2.50;99.90
5675;DHT22;2860;54.284;10.158;2024-01-30T06:03:23;2.50;99.90
5675;DHT22;2860;54.284;10.158;2024-01-30T06:05:49;2.50;99.90
5675;DHT22;2860;54.284;10.158;2024-01-30T06:08:14;2.50;99.90
5675;DHT22;2860;54.284;10.158;2024-01-30T06:10:40;2.50;99.90
5675;DHT22;2860;54.284;10.158;2024-01-30T06:13:05;2.50;99.90
5675;DHT22;2860;54.284;10.158;2024-01-30T06:15:31;2.50;99.90
5675;DHT22;2860;54.284;10.158;2024-01-30T06:17:58;2.50;99.90
5675;DHT22;2860;54.284;10.158;2024-01-30T06:20:24;2.40;99.90
5675;DHT22;2860;54.284;10.158;2024-01-30T06:22:49;2.40;99.90
5675;DHT22;2860;54.284;10.158;2024-01-30T06:25:15;2.40;99.90
5675;DHT22;2860;54.284;10.158;2024-01-30T06:27:42;2.40;99.90
5675;DHT22;2860;54.284;10.158;2024-01-30T06:30:08;2.30;99.90
5675;DHT22;2860;54.284;10.158;2024-01-30T06:32:35;2.30;99.90
5675;DHT22;2860;54.284;10.158;2024-01-30T06:35:01;2.20;99.90
5675;DHT22;2860;54.284;10.158;2024-01-30T06:37:27;2.30;99.90
5675;DHT22;2860;54.284;10.158;2024-01-30T06:39:52;2.20;99.90
5675;DHT22;2860;54.284;10.158;2024-01-30T06:42:18;2.20;99.90
5675;DHT22;2860;54.284;10.158;2024-01-30T06:44:44;2.20;99.90
5675;DHT22;2860;54.284;10.158;2024-01-30T06:47:10;2.20;99.90
5675;DHT22;2860;54.284;10.158;2024-01-30T06:49:35;2.20;99.90
5675;DHT22;2860;54.284;10.158;2024-01-30T06:52:05;2.20;99.90
5675;DHT22;2860;54.284;10.158;2024-01-30T06:54:30;2.20;99.90
5675;DHT22;2860;54.284;10.158;2024-01-30T06:56:56;2.20;99.90
5675;DHT22;2860;54.284;10.158;2024-01-30T06:59:22;2.20;99.90
5675;DHT22;2860;54.284;10.158;2024-01-30T07:01:47;2.20;99.90
5675;DHT22;2860;54.284;10.158;2024-01-30T07:04:13;2.30;99.90
5675;DHT22;2860;54.284;10.158;2024-01-30T07:06:38;2.20;99.90
5675;DHT22;2860;54.284;10.158;2024-01-30T07:09:04;2.30;99.90
5675;DHT22;2860;54.284;10.158;2024-01-30T07:11:30;2.30;99.90
5675;DHT22;2860;54.284;10.158;2024-01-30T07:13:56;2.30;99.90
5675;DHT22;2860;54.284;10.158;2024-01-30T07:16:22;2.30;99.90
5675;DHT22;2860;54.284;10.158;2024-01-30T07:18:48;2.30;99.90
5675;DHT22;2860;54.284;10.158;2024-01-30T07:21:17;2.40;99.90
5675;DHT22;2860;54.284;10.158;2024-01-30T07:23:42;2.40;99.90
5675;DHT22;2860;54.284;10.158;2024-01-30T07:26:08;2.40;99.90
5675;DHT22;2860;54.284;10.158;2024-01-30T07:28:34;2.40;99.90
5675;DHT22;2860;54.284;10.158;2024-01-30T07:31:01;2.40;99.90
5675;DHT22;2860;54.284;10.158;2024-01-30T07:33:27;2.50;99.90
5675;DHT22;2860;54.284;10.158;2024-01-30T07:35:53;2.50;99.90
5675;DHT22;2860;54.284;10.158;2024-01-30T07:38:19;2.60;99.90
5675;DHT22;2860;54.284;10.158;2024-01-30T07:40:45;2.60;99.90
5675;DHT22;2860;54.284;10.158;2024-01-30T07:43:10;2.60;99.90
5675;DHT22;2860;54.284;10.158;2024-01-30T07:45:36;2.70;99.90
5675;DHT22;2860;54.284;10.158;2024-01-30T07:48:03;2.70;99.90
5675;DHT22;2860;54.284;10.158;2024-01-30T07:50:28;2.80;99.90
5675;DHT22;2860;54.284;10.158;2024-01-30T07:52:56;2.80;99.90
5675;DHT22;2860;54.284;10.158;2024-01-30T07:55:22;2.90;99.90
5675;DHT22;2860;54.284;10.158;2024-01-30T07:57:53;2.90;99.90
5675;DHT22;2860;54.284;10.158;2024-01-30T08:00:19;2.90;99.90
5675;DHT22;2860;54.284;10.158;2024-01-30T08:02:45;2.90;99.90
5675;DHT22;2860;54.284;10.158;2024-01-30T08:05:11;3.00;99.90
5675;DHT22;2860;54.284;10.158;2024-01-30T08:07:37;3.00;99.90
5675;DHT22;2860;54.284;10.158;2024-01-30T08:10:03;3.10;99.90
5675;DHT22;2860;54.284;10.158;2024-01-30T08:12:29;3.10;99.90
5675;DHT22;2860;54.284;10.158;2024-01-30T08:14:54;3.10;99.90
5675;DHT22;2860;54.284;10.158;2024-01-30T08:17:20;3.20;99.90
5675;DHT22;2860;54.284;10.158;2024-01-30T08:19:45;3.20;99.90
5675;DHT22;2860;54.284;10.158;2024-01-30T08:22:12;3.30;99.90
5675;DHT22;2860;54.284;10.158;2024-01-30T08:24:49;3.30;99.90
5675;DHT22;2860;54.284;10.158;2024-01-30T08:27:15;3.40;99.90
5675;DHT22;2860;54.284;10.158;2024-01-30T08:29:40;3.50;99.90
5675;DHT22;2860;54.284;10.158;2024-01-30T08:32:06;3.50;99.90
5675;DHT22;2860;54.284;10.158;2024-01-30T08:34:32;3.60;99.90
5675;DHT22;2860;54.284;10.158;2024-01-30T08:36:58;3.70;99.90
5675;DHT22;2860;54.284;10.158;2024-01-30T08:39:23;3.80;99.90
5675;DHT22;2860;54.284;10.158;2024-01-30T08:41:49;3.80;99.90
5675;DHT22;2860;54.284;10.158;2024-01-30T08:44:15;3.90;99.90
5675;DHT22;2860;54.284;10.158;2024-01-30T08:46:40;3.90;99.90
5675;DHT22;2860;54.284;10.158;2024-01-30T08:49:06;4.00;99.90
5675;DHT22;2860;54.284;10.158;2024-01-30T08:51:31;4.10;99.90
5675;DHT22;2860;54.284;10.158;2024-01-30T08:53:57;4.10;99.90
5675;DHT22;2860;54.284;10.158;2024-01-30T08:56:22;4.20;99.90
5675;DHT22;2860;54.284;10.158;2024-01-30T08:58:48;4.30;99.90
5675;DHT22;2860;54.284;10.158;2024-01-30T09:01:14;4.30;99.90
5675;DHT22;2860;54.284;10.158;2024-01-30T09:03:39;4.40;99.90
5675;DHT22;2860;54.284;10.158;2024-01-30T09:06:12;4.50;99.90
5675;DHT22;2860;54.284;10.158;2024-01-30T09:08:38;4.60;99.90
5675;DHT22;2860;54.284;10.158;2024-01-30T09:11:11;4.70;99.90
5675;DHT22;2860;54.284;10.158;2024-01-30T09:13:37;4.80;99.90
5675;DHT22;2860;54.284;10.158;2024-01-30T09:16:03;4.90;99.90
5675;DHT22;2860;54.284;10.158;2024-01-30T09:18:29;5.00;99.90
5675;DHT22;2860;54.284;10.158;2024-01-30T09:20:54;5.10;99.90
5675;DHT22;2860;54.284;10.158;2024-01-30T09:23:20;5.20;99.90
5675;DHT22;2860;54.284;10.158;2024-01-30T09:25:45;5.30;99.90
5675;DHT22;2860;54.284;10.158;2024-01-30T09:28:11;5.30;99.90
5675;DHT22;2860;54.284;10.158;2024-01-30T09:30:36;5.50;99.90
5675;DHT22;2860;54.284;10.158;2024-01-30T09:33:02;5.60;99.90
5675;DHT22;2860;54.284;10.158;2024-01-30T09:35:29;5.70;99.90
5675;DHT22;2860;54.284;10.158;2024-01-30T09:37:55;5.80;99.90
5675;DHT22;2860;54.284;10.158;2024-01-30T09:40:21;5.90;99.90
5675;DHT22;2860;54.284;10.158;2024-01-30T09:42:50;6.00;99.90
5675;DHT22;2860;54.284;10.158;2024-01-30T09:45:18;6.10;99.90
5675;DHT22;2860;54.284;10.158;2024-01-30T09:47:45;6.10;99.90
5675;DHT22;2860;54.284;10.158;2024-01-30T09:50:12;6.20;99.90
5675;DHT22;2860;54.284;10.158;2024-01-30T09:52:38;6.30;99.90
5675;DHT22;2860;54.284;10.158;2024-01-30T09:55:04;6.30;99.90
5675;DHT22;2860;54.284;10.158;2024-01-30T09:57:30;6.40;99.90
5675;DHT22;2860;54.284;10.158;2024-01-30T09:59:55;6.40;99.90
5675;DHT22;2860;54.284;10.158;2024-01-30T10:02:21;6.50;99.90
5675;DHT22;2860;54.284;10.158;2024-01-30T10:04:48;6.60;99.90
5675;DHT22;2860;54.284;10.158;2024-01-30T10:07:14;6.70;99.90
5675;DHT22;2860;54.284;10.158;2024-01-30T10:09:40;6.70;99.90
5675;DHT22;2860;54.284;10.158;2024-01-30T10:12:06;6.80;99.90
5675;DHT22;2860;54.284;10.158;2024-01-30T10:14:33;6.90;99.90
5675;DHT22;2860;54.284;10.158;2024-01-30T10:16:58;6.90;99.90
5675;DHT22;2860;54.284;10.158;2024-01-30T10:19:24;7.00;99.90
5675;DHT22;2860;54.284;10.158;2024-01-30T10:21:50;7.00;99.90
5675;DHT22;2860;54.284;10.158;2024-01-30T10:24:16;7.10;99.90
5675;DHT22;2860;54.284;10.158;2024-01-30T10:26:44;7.20;99.90
5675;DHT22;2860;54.284;10.158;2024-01-30T10:29:09;7.20;99.90
5675;DHT22;2860;54.284;10.158;2024-01-30T10:31:35;7.30;99.90
5675;DHT22;2860;54.284;10.158;2024-01-30T10:34:00;7.30;99.90
5675;DHT22;2860;54.284;10.158;2024-01-30T10:36:28;7.40;99.90
5675;DHT22;2860;54.284;10.158;2024-01-30T10:38:55;7.50;99.90
5675;DHT22;2860;54.284;10.158;2024-01-30T10:41:26;7.50;99.90
5675;DHT22;2860;54.284;10.158;2024-01-30T10:44:02;7.60;99.90
5675;DHT22;2860;54.284;10.158;2024-01-30T10:46:32;7.60;99.90
5675;DHT22;2860;54.284;10.158;2024-01-30T10:48:58;7.70;99.90
5675;DHT22;2860;54.284;10.158;2024-01-30T10:51:26;7.70;99.90
5675;DHT22;2860;54.284;10.158;2024-01-30T10:53:52;7.70;99.90
5675;DHT22;2860;54.284;10.158;2024-01-30T10:56:21;7.80;99.90
5675;DHT22;2860;54.284;10.158;2024-01-30T10:58:50;7.90;99.90
5675;DHT22;2860;54.284;10.158;2024-01-30T11:01:17;8.00;99.90
5675;DHT22;2860;54.284;10.158;2024-01-30T11:03:42;8.00;99.90
5675;DHT22;2860;54.284;10.158;2024-01-30T11:06:11;8.10;99.90
5675;DHT22;2860;54.284;10.158;2024-01-30T11:08:45;8.10;99.90
5675;DHT22;2860;54.284;10.158;2024-01-30T11:11:10;8.10;99.90
5675;DHT22;2860;54.284;10.158;2024-01-30T11:13:36;8.10;99.90
5675;DHT22;2860;54.284;10.158;2024-01-30T11:16:03;8.20;99.90
5675;DHT22;2860;54.284;10.158;2024-01-30T11:18:30;8.20;99.90
5675;DHT22;2860;54.284;10.158;2024-01-30T11:20:56;8.30;99.90
5675;DHT22;2860;54.284;10.158;2024-01-30T11:23:23;8.30;99.90
5675;DHT22;2860;54.284;10.158;2024-01-30T11:25:48;8.30;99.90
5675;DHT22;2860;54.284;10.158;2024-01-30T11:28:15;8.30;99.90
5675;DHT22;2860;54.284;10.158;2024-01-30T11:30:42;8.30;99.90
5675;DHT22;2860;54.284;10.158;2024-01-30T11:33:09;8.30;99.90
5675;DHT22;2860;54.284;10.158;2024-01-30T11:35:38;8.30;99.90
5675;DHT22;2860;54.284;10.158;2024-01-30T11:38:09;8.20;99.90
5675;DHT22;2860;54.284;10.158;2024-01-30T11:40:36;8.20;99.90
5675;DHT22;2860;54.284;10.158;2024-01-30T11:43:03;8.20;99.90
5675;DHT22;2860;54.284;10.158;2024-01-30T11:45:30;8.20;99.90
5675;DHT22;2860;54.284;10.158;2024-01-30T11:47:56;8.20;99.90
5675;DHT22;2860;54.284;10.158;2024-01-30T11:50:24;8.20;99.90
5675;DHT22;2860;54.284;10.158;2024-01-30T11:52:50;8.20;99.90
5675;DHT22;2860;54.284;10.158;2024-01-30T11:55:15;8.20;99.90
5675;DHT22;2860;54.284;10.158;2024-01-30T11:57:41;8.20;99.90
5675;DHT22;2860;54.284;10.158;2024-01-30T12:00:14;8.20;99.90
5675;DHT22;2860;54.284;10.158;2024-01-30T12:02:40;8.20;99.90
5675;DHT22;2860;54.284;10.158;2024-01-30T12:05:07;8.30;99.90
5675;DHT22;2860;54.284;10.158;2024-01-30T12:07:33;8.30;99.90
5675;DHT22;2860;54.284;10.158;2024-01-30T12:09:59;8.30;99.90
5675;DHT22;2860;54.284;10.158;2024-01-30T12:12:28;8.40;99.90
5675;DHT22;2860;54.284;10.158;2024-01-30T12:14:55;8.40;99.90
5675;DHT22;2860;54.284;10.158;2024-01-30T12:17:29;8.40;99.90
5675;DHT22;2860;54.284;10.158;2024-01-30T12:20:13;8.40;99.90
5675;DHT22;2860;54.284;10.158;2024-01-30T12:22:46;8.40;99.90
5675;DHT22;2860;54.284;10.158;2024-01-30T12:25:14;8.50;99.90
5675;DHT22;2860;54.284;10.158;2024-01-30T12:27:42;8.50;99.90
5675;DHT22;2860;54.284;10.158;2024-01-30T12:30:09;8.50;99.90
5675;DHT22;2860;54.284;10.158;2024-01-30T12:32:36;8.50;99.90
5675;DHT22;2860;54.284;10.158;2024-01-30T12:35:02;8.60;99.90
5675;DHT22;2860;54.284;10.158;2024-01-30T12:37:28;8.60;99.90
5675;DHT22;2860;54.284;10.158;2024-01-30T12:39:55;8.70;99.90
5675;DHT22;2860;54.284;10.158;2024-01-30T12:42:21;8.70;99.90
5675;DHT22;2860;54.284;10.158;2024-01-30T12:44:50;8.80;99.90
5675;DHT22;2860;54.284;10.158;2024-01-30T12:47:15;8.80;99.90
5675;DHT22;2860;54.284;10.158;2024-01-30T12:49:43;8.80;99.90
5675;DHT22;2860;54.284;10.158;2024-01-30T12:52:09;8.80;99.90
5675;DHT22;2860;54.284;10.158;2024-01-30T12:54:35;8.80;99.90
5675;DHT22;2860;54.284;10.158;2024-01-30T12:57:01;8.70;99.90
5675;DHT22;2860;54.284;10.158;2024-01-30T12:59:26;8.70;99.90
5675;DHT22;2860;54.284;10.158;2024-01-30T13:01:52;8.70;99.90
5675;DHT22;2860;54.284;10.158;2024-01-30T13:04:17;8.70;99.90
5675;DHT22;2860;54.284;10.158;2024-01-30T13:06:43;8.70;99.90
5675;DHT22;2860;54.284;10.158;2024-01-30T13:09:08;8.60;99.90
5675;DHT22;2860;54.284;10.158;2024-01-30T13:11:34;8.60;99.90
5675;DHT22;2860;54.284;10.158;2024-01-30T13:14:00;8.60;99.90
5675;DHT22;2860;54.284;10.158;2024-01-30T13:16:25;8.70;99.90
5675;DHT22;2860;54.284;10.158;2024-01-30T13:18:51;8.70;99.90
5675;DHT22;2860;54.284;10.158;2024-01-30T13:21:16;8.60;99.90
5675;DHT22;2860;54.284;10.158;2024-01-30T13:23:42;8.60;99.90
5675;DHT22;2860;54.284;10.158;2024-01-30T13:26:08;8.60;99.90
5675;DHT22;2860;54.284;10.158;2024-01-30T13:28:33;8.60;99.90
5675;DHT22;2860;54.284;10.158;2024-01-30T13:30:59;8.50;99.90
5675;DHT22;2860;54.284;10.158;2024-01-30T13:33:26;8.50;99.90
5675;DHT22;2860;54.284;10.158;2024-01-30T13:35:51;8.50;99.90
5675;DHT22;2860;54.284;10.158;2024-01-30T13:38:17;8.50;99.90
5675;DHT22;2860;54.284;10.158;2024-01-30T13:40:42;8.40;99.90
5675;DHT22;2860;54.284;10.158;2024-01-30T13:43:08;8.40;99.90
5675;DHT22;2860;54.284;10.158;2024-01-30T13:45:33;8.40;99.90
5675;DHT22;2860;54.284;10.158;2024-01-30T13:47:59;8.40;99.90
5675;DHT22;2860;54.284;10.158;2024-01-30T13:50:24;8.40;99.90
5675;DHT22;2860;54.284;10.158;2024-01-30T13:52:50;8.40;99.90
5675;DHT22;2860;54.284;10.158;2024-01-30T13:55:15;8.40;99.90
5675;DHT22;2860;54.284;10.158;2024-01-30T13:57:41;8.40;99.90
5675;DHT22;2860;54.284;10.158;2024-01-30T14:00:07;8.50;99.90
5675;DHT22;2860;54.284;10.158;2024-01-30T14:02:33;8.50;99.90
5675;DHT22;2860;54.284;10.158;2024-01-30T14:04:58;8.50;99.90
5675;DHT22;2860;54.284;10.158;2024-01-30T14:07:24;8.60;99.90
5675;DHT22;2860;54.284;10.158;2024-01-30T14:09:49;8.60;99.90
5675;DHT22;2860;54.284;10.158;2024-01-30T14:12:15;8.60;99.90
5675;DHT22;2860;54.284;10.158;2024-01-30T14:14:41;8.60;99.90
5675;DHT22;2860;54.284;10.158;2024-01-30T14:17:07;8.60;99.90
5675;DHT22;2860;54.284;10.158;2024-01-30T14:19:34;8.60;99.90
5675;DHT22;2860;54.284;10.158;2024-01-30T14:21:59;8.60;99.90
5675;DHT22;2860;54.284;10.158;2024-01-30T14:24:25;8.60;99.90
5675;DHT22;2860;54.284;10.158;2024-01-30T14:26:50;8.60;99.90
5675;DHT22;2860;54.284;10.158;2024-01-30T14:29:16;8.60;99.90
5675;DHT22;2860;54.284;10.158;2024-01-30T14:31:42;8.60;99.90
5675;DHT22;2860;54.284;10.158;2024-01-30T14:34:07;8.70;99.90
5675;DHT22;2860;54.284;10.158;2024-01-30T14:36:34;8.70;99.90
5675;DHT22;2860;54.284;10.158;2024-01-30T14:38:59;8.70;99.90
5675;DHT22;2860;54.284;10.158;2024-01-30T14:41:25;8.80;99.90
5675;DHT22;2860;54.284;10.158;2024-01-30T14:43:50;8.80;99.90
5675;DHT22;2860;54.284;10.158;2024-01-30T14:46:16;8.80;99.90
5675;DHT22;2860;54.284;10.158;2024-01-30T14:48:41;8.80;99.90
5675;DHT22;2860;54.284;10.158;2024-01-30T14:51:08;8.80;99.90
5675;DHT22;2860;54.284;10.158;2024-01-30T14:53:34;8.80;99.90
5675;DHT22;2860;54.284;10.158;2024-01-30T14:55:59;8.70;99.90
5675;DHT22;2860;54.284;10.158;2024-01-30T14:58:25;8.70;99.90
5675;DHT22;2860;54.284;10.158;2024-01-30T15:00:50;8.70;99.90
5675;DHT22;2860;54.284;10.158;2024-01-30T15:03:16;8.70;99.90
5675;DHT22;2860;54.284;10.158;2024-01-30T15:05:41;8.70;99.90
5675;DHT22;2860;54.284;10.158;2024-01-30T15:08:07;8.60;99.90
5675;DHT22;2860;54.284;10.158;2024-01-30T15:10:32;8.60;99.90
5675;DHT22;2860;54.284;10.158;2024-01-30T15:12:58;8.60;99.90
5675;DHT22;2860;54.284;10.158;2024-01-30T15:15:23;8.50;99.90
5675;DHT22;2860;54.284;10.158;2024-01-30T15:17:49;8.50;99.90
5675;DHT22;2860;54.284;10.158;2024-01-30T15:20:14;8.50;99.90
5675;DHT22;2860;54.284;10.158;2024-01-30T15:22:40;8.40;99.90
5675;DHT22;2860;54.284;10.158;2024-01-30T15:25:06;8.40;99.90
5675;DHT22;2860;54.284;10.158;2024-01-30T15:27:32;8.30;99.90
5675;DHT22;2860;54.284;10.158;2024-01-30T15:29:57;8.30;99.90
5675;DHT22;2860;54.284;10.158;2024-01-30T15:32:23;8.30;99.90
5675;DHT22;2860;54.284;10.158;2024-01-30T15:34:48;8.30;99.90
5675;DHT22;2860;54.284;10.158;2024-01-30T15:37:16;8.30;99.90
5675;DHT22;2860;54.284;10.158;2024-01-30T15:39:42;8.30;99.90
5675;DHT22;2860;54.284;10.158;2024-01-30T15:42:08;8.30;99.90
5675;DHT22;2860;54.284;10.158;2024-01-30T15:44:33;8.20;99.90
5675;DHT22;2860;54.284;10.158;2024-01-30T15:46:59;8.20;99.90
5675;DHT22;2860;54.284;10.158;2024-01-30T15:49:25;8.20;99.90
5675;DHT22;2860;54.284;10.158;2024-01-30T15:51:51;8.20;99.90
5675;DHT22;2860;54.284;10.158;2024-01-30T15:54:16;8.20;99.90